^^
Grace C. Lehan Memorial Weather Station Historical Data
Daily Summary for January 9, 2021 Units:  English    Metric   Both
Daily Weekly Monthly Yearly
  High: Low: Average:
Temperature: 80.8 °F 70.7 °F 74.4 °F
Dew Point: 71.2 °F 66.4 °F 68.9 °F
Humidity: 92% 68.6% 83%
Wind Speed: 2.4mph 0mph 0.2mph
Wind Gust: 9mph - -
Wind- - East
Pressure: 30.14 in 30.07 in -
Precipitation: 0.01 in    
 
 
Tabular Data for January 9, 2021
Time Temperature Dew Point Pressure Wind Wind Speed Wind Gust Humidity Rainfall Rate (Hourly) solar
00:04 73.4 °F 68.3 °F 30.07 in Calm     84% 0.00 in 0 W/m2
00:09 73.5 °F 68.3 °F 30.07 in Calm     84% 0.00 in 0 W/m2
00:14 73.4 °F 68.4 °F 30.07 in Calm     84.1% 0.00 in 0 W/m2
00:19 73.4 °F 68.6 °F 30.08 in Calm     84.8% 0.00 in 0 W/m2
00:24 73.3 °F 68.6 °F 30.08 in Calm     85% 0.00 in 0 W/m2
00:29 73.3 °F 68.5 °F 30.08 in Calm     85% 0.00 in 0 W/m2
00:34 73.2 °F 68.4 °F 30.08 in Calm     84.9% 0.00 in 0 W/m2
00:39 73.2 °F 68 °F 30.08 in Calm     84% 0.00 in 0 W/m2
00:44 73.1 °F 67.8 °F 30.08 in Calm     83.6% 0.00 in 0 W/m2
00:49 73 °F 67.7 °F 30.08 in Calm     83.4% 0.00 in 0 W/m2
00:54 73 °F 67.5 °F 30.09 in Calm     83% 0.00 in 0 W/m2
00:59 73 °F 67.6 °F 30.08 in Calm     83% 0.00 in 0 W/m2
01:04 73.1 °F 67.6 °F 30.08 in Calm     83% 0.00 in 0 W/m2
01:09 73 °F 67.3 °F 30.09 in Calm     82.3% 0.00 in 0 W/m2
01:14 73 °F 67.2 °F 30.09 in Calm     82% 0.00 in 0 W/m2
01:19 73 °F 67.2 °F 30.09 in Calm     82% 0.00 in 0 W/m2
01:24 72.9 °F 67.1 °F 30.09 in Calm     82% 0.00 in 0 W/m2
01:29 72.9 °F 67.1 °F 30.09 in Calm     82% 0.00 in 0 W/m2
01:34 72.8 °F 67 °F 30.09 in Calm     82% 0.00 in 0 W/m2
01:39 72.8 °F 67 °F 30.09 in Calm     82% 0.00 in 0 W/m2
01:44 72.7 °F 66.7 °F 30.09 in Calm     81.5% 0.00 in 0 W/m2
01:49 72.6 °F 66.4 °F 30.09 in Calm     81% 0.00 in 0 W/m2
01:54 72.6 °F 66.4 °F 30.09 in Calm     81% 0.00 in 0 W/m2
01:59 72.5 °F 66.6 °F 30.09 in Calm     81.8% 0.00 in 0 W/m2
02:04 72.4 °F 66.6 °F 30.09 in Calm   1 mph 82% 0.00 in 0 W/m2
02:09 72.4 °F 66.6 °F 30.09 in Calm   1 mph 82.1% 0.00 in 0 W/m2
02:14 72.2 °F 66.8 °F 30.09 in Calm   1 mph 83% 0.00 in 0 W/m2
02:19 72.2 °F 66.8 °F 30.09 in Calm   1 mph 83% 0.00 in 0 W/m2
02:24 72.1 °F 66.7 °F 30.09 in Calm   1 mph 83% 0.00 in 0 W/m2
02:29 72.1 °F 67 °F 30.09 in Calm   1 mph 84% 0.00 in 0 W/m2
02:34 72.1 °F 67 °F 30.09 in Calm   1 mph 84.1% 0.00 in 0 W/m2
02:39 72.1 °F 67.3 °F 30.09 in Calm   1 mph 85% 0.00 in 0 W/m2
02:44 72 °F 67.3 °F 30.09 in Calm   1 mph 85% 0.00 in 0 W/m2
02:49 72 °F 67.6 °F 30.09 in Calm   1 mph 85.9% 0.00 in 0 W/m2
02:54 72 °F 67.6 °F 30.09 in Calm   1 mph 86% 0.00 in 0 W/m2
02:59 71.9 °F 67.5 °F 30.09 in Calm   1 mph 86% 0.00 in 0 W/m2
03:04 71.9 °F 67.6 °F 30.09 in Calm   1 mph 86.4% 0.00 in 0 W/m2
03:09 71.8 °F 67.7 °F 30.09 in Calm     87% 0.00 in 0 W/m2
03:14 71.7 °F 67.6 °F 30.09 in Calm     87% 0.00 in 0 W/m2
03:19 71.6 °F 67.5 °F 30.09 in Calm     87% 0.00 in 0 W/m2
03:24 71.5 °F 67.4 °F 30.08 in Calm     87% 0.00 in 0 W/m2
03:29 71.4 °F 67.3 °F 30.09 in Calm     87% 0.00 in 0 W/m2
03:34 71.3 °F 67.5 °F 30.09 in Calm     87.7% 0.00 in 0 W/m2
03:39 71.3 °F 67.6 °F 30.09 in Calm     88% 0.00 in 0 W/m2
03:44 71.3 °F 67.5 °F 30.08 in Calm     88% 0.00 in 0 W/m2
03:49 71.2 °F 67.5 °F 30.08 in Calm     88% 0.00 in 0 W/m2
03:54 71.2 °F 67.6 °F 30.08 in Calm     88.4% 0.00 in 0 W/m2
03:59 71.1 °F 67.7 °F 30.08 in Calm     89% 0.00 in 0 W/m2
04:00 71.1 °F 67.7 °F 30.08 in Calm     89% 0.00 in 0 W/m2
04:09 71 °F 67.6 °F 30.08 in WNW 0.1 mph 2 mph 89% 0.00 in 0 W/m2
04:14 71 °F 67.6 °F 30.08 in Calm   2 mph 89% 0.00 in 0 W/m2
04:19 71 °F 67.6 °F 30.09 in Calm   2 mph 89% 0.00 in 0 W/m2
04:24 71 °F 67.6 °F 30.09 in Calm   2 mph 89% 0.00 in 0 W/m2
04:29 71 °F 67.6 °F 30.09 in Calm   2 mph 89% 0.00 in 0 W/m2
04:34 71 °F 67.6 °F 30.09 in Calm   2 mph 89% 0.00 in 0 W/m2
04:39 71 °F 67.6 °F 30.09 in Calm     89% 0.00 in 0 W/m2
04:44 71 °F 67.6 °F 30.09 in Calm     89% 0.00 in 0 W/m2
04:49 71 °F 67.6 °F 30.09 in Calm     89% 0.00 in 0 W/m2
04:54 70.9 °F 67.5 °F 30.09 in Calm     89% 0.00 in 0 W/m2
04:59 70.9 °F 67.5 °F 30.10 in Calm     89% 0.00 in 0 W/m2
05:04 70.8 °F 67.4 °F 30.10 in Calm     89% 0.00 in 0 W/m2
05:09 70.8 °F 67.4 °F 30.10 in Calm     89% 0.00 in 0 W/m2
05:14 70.7 °F 67.3 °F 30.10 in Calm     89% 0.00 in 0 W/m2
05:19 70.7 °F 67.4 °F 30.09 in Calm     89.1% 0.00 in 0 W/m2
05:24 70.8 °F 67.6 °F 30.10 in Calm     89.7% 0.00 in 0 W/m2
05:29 70.7 °F 67.3 °F 30.10 in Calm     89.1% 0.00 in 0 W/m2
05:34 70.7 °F 67.3 °F 30.10 in Calm     89% 0.00 in 0 W/m2
05:39 70.7 °F 67.3 °F 30.10 in Calm     89% 0.00 in 0 W/m2
05:44 70.7 °F 67.3 °F 30.10 in Calm     89% 0.00 in 0 W/m2
05:49 70.7 °F 67.3 °F 30.10 in Calm     89% 0.00 in 0 W/m2
05:54 70.7 °F 67.3 °F 30.10 in Calm     89% 0.00 in 0 W/m2
05:59 70.7 °F 67.2 °F 30.10 in Calm     88.6% 0.00 in 0 W/m2
06:04 70.7 °F 67 °F 30.10 in Calm     88% 0.00 in 0 W/m2
06:09 70.7 °F 67 °F 30.10 in Calm     88.1% 0.00 in 5 W/m2
06:14 70.8 °F 67.4 °F 30.10 in Calm     89% 0.00 in 5 W/m2
06:19 70.8 °F 67.4 °F 30.10 in Calm     89% 0.00 in 9 W/m2
06:24 70.8 °F 67.4 °F 30.11 in Calm     89% 0.00 in 12 W/m2
06:29 70.8 °F 67.4 °F 30.11 in Calm     89% 0.00 in 23 W/m2
06:34 70.8 °F 67.4 °F 30.11 in Calm     89% 0.00 in 26 W/m2
06:39 70.8 °F 67.4 °F 30.11 in WNW 0.1 mph 2 mph 89% 0.00 in 25 W/m2
06:44 70.8 °F 67.4 °F 30.11 in Calm   2 mph 89% 0.00 in 19 W/m2
06:49 70.8 °F 67.2 °F 30.11 in Calm   2 mph 88.3% 0.00 in 26 W/m2
06:54 70.9 °F 67.1 °F 30.11 in Calm   2 mph 88% 0.00 in 26 W/m2
06:59 70.9 °F 67.2 °F 30.11 in Calm   2 mph 88% 0.00 in 19 W/m2
07:04 70.9 °F 67.2 °F 30.11 in Calm   2 mph 88% 0.00 in 14 W/m2
07:09 71 °F 67.3 °F 30.12 in Calm   1 mph 88% 0.00 in 18 W/m2
07:14 71 °F 67.3 °F 30.12 in Calm   1 mph 88% 0.00 in 21 W/m2
07:19 71 °F 67.3 °F 30.12 in Calm   1 mph 88% 0.00 in 33 W/m2
07:24 71.1 °F 67.6 °F 30.12 in Calm   1 mph 88.7% 0.00 in 37 W/m2
07:29 71.2 °F 67.8 °F 30.12 in Calm   1 mph 89% 0.00 in 49 W/m2
07:34 71.2 °F 67.8 °F 30.12 in Calm   1 mph 89% 0.00 in 62 W/m2
07:39 71.3 °F 67.8 °F 30.12 in WNW 0.2 mph 2 mph 89% 0.00 in 60 W/m2
07:44 71.3 °F 67.9 °F 30.12 in Calm   2 mph 89% 0.00 in 39 W/m2
07:49 71.4 °F 68 °F 30.13 in WNW 0.3 mph 6 mph 89% 0.00 in 54 W/m2
07:54 71.4 °F 68 °F 30.12 in WNW 0.4 mph 6 mph 89% 0.00 in 54 W/m2
07:59 71.4 °F 68 °F 30.12 in WNW 0.4 mph 6 mph 89% 0.00 in 51 W/m2
08:00 71.4 °F 68 °F 30.12 in Calm   6 mph 89% 0.00 in 23 W/m2
08:09 71.4 °F 68 °F 30.12 in Calm   1 mph 89% 0.00 in 49 W/m2
08:14 71.4 °F 68 °F 30.13 in NNW 0.7 mph 9 mph 89% 0.00 in 62 W/m2
08:19 71.5 °F 68.1 °F 30.13 in North 0.1 mph 9 mph 89.1% 0.00 in 65 W/m2
08:24 71.5 °F 68.4 °F 30.12 in Calm   9 mph 90% 0.00 in 58 W/m2
08:29 71.6 °F 68.5 °F 30.13 in Calm   9 mph 90% 0.01 in 62 W/m2
08:34 71.7 °F 68.6 °F 30.13 in Calm   9 mph 90.2% 0.01 in 77 W/m2
08:39 71.8 °F 69 °F 30.13 in Calm   1 mph 91% 0.01 in 79 W/m2
08:44 71.9 °F 69.3 °F 30.13 in North 0.1 mph 2 mph 91.3% 0.01 in 65 W/m2
08:49 72 °F 69.6 °F 30.13 in North 0.1 mph 3 mph 92% 0.01 in 74 W/m2
08:54 72.1 °F 69.6 °F 30.13 in Calm   3 mph 92% 0.01 in 74 W/m2
08:59 72.1 °F 69.6 °F 30.13 in Calm   3 mph 92% 0.01 in 76 W/m2
09:04 72.1 °F 69.7 °F 30.12 in Calm   3 mph 92% 0.01 in 93 W/m2
09:09 72.2 °F 69.7 °F 30.12 in Calm   1 mph 92% 0.00 in 148 W/m2
09:14 72.5 °F 70 °F 30.13 in NNE 0.3 mph 2 mph 92% 0.00 in 160 W/m2
09:19 72.6 °F 70 °F 30.13 in Calm   2 mph 91.5% 0.00 in 146 W/m2
09:24 72.7 °F 69.9 °F 30.13 in Calm   2 mph 91% 0.00 in 90 W/m2
09:29 72.8 °F 69.9 °F 30.13 in Calm   2 mph 90.5% 0.00 in 132 W/m2
09:34 72.9 °F 69.8 °F 30.13 in Calm   2 mph 90% 0.00 in 404 W/m2
09:39 73.2 °F 70 °F 30.13 in NE 0.6 mph 5 mph 89.7% 0.00 in 271 W/m2
09:44 73.5 °F 69.7 °F 30.13 in NE 0.4 mph 5 mph 88% 0.00 in 246 W/m2
09:49 73.7 °F 69.2 °F 30.13 in ENE 0.6 mph 5 mph 85.8% 0.00 in 246 W/m2
09:54 74.1 °F 69.5 °F 30.13 in ENE 0.9 mph 6 mph 85.6% 0.00 in 229 W/m2
09:59 74.3 °F 69.2 °F 30.13 in ENE 0.9 mph 6 mph 84% 0.00 in 179 W/m2
10:04 74.5 °F 69 °F 30.13 in ENE 0.1 mph 6 mph 82.8% 0.00 in 216 W/m2
10:09 74.8 °F 69.1 °F 30.12 in Calm   2 mph 82.5% 0.00 in 225 W/m2
10:14 75 °F 69.2 °F 30.13 in Calm   2 mph 82% 0.00 in 281 W/m2
10:19 75.4 °F 69.4 °F 30.13 in ENE 1.1 mph 5 mph 81.7% 0.00 in 360 W/m2
10:24 75.9 °F 69.7 °F 30.13 in ENE 0.5 mph 5 mph 81% 0.00 in 360 W/m2
10:29 76.3 °F 69 °F 30.13 in ENE 0.8 mph 5 mph 78.1% 0.00 in 471 W/m2
10:34 76.7 °F 69.4 °F 30.13 in ENE 0.6 mph 5 mph 78.2% 0.00 in 471 W/m2
10:39 77.1 °F 69.4 °F 30.13 in ENE 0.9 mph 5 mph 77.2% 0.00 in 359 W/m2
10:44 77.5 °F 69.2 °F 30.13 in ENE 1.3 mph 5 mph 75.7% 0.00 in 564 W/m2
10:49 78 °F 69.7 °F 30.13 in ENE 0.7 mph 5 mph 75.5% 0.00 in 705 W/m2
10:54 78.7 °F 69.1 °F 30.13 in ENE 2 mph 6 mph 72.5% 0.00 in 603 W/m2
10:59 79.3 °F 69.2 °F 30.13 in ENE 1.7 mph 6 mph 71.3% 0.00 in 896 W/m2
11:04 79.8 °F 69.7 °F 30.13 in ENE 0.1 mph 6 mph 71.2% 0.00 in 896 W/m2
11:09 80.1 °F 69.4 °F 30.14 in East 2.1 mph 5 mph 69.9% 0.00 in 471 W/m2
11:14 80 °F 68.8 °F 30.14 in ENE 1.6 mph 5 mph 68.6% 0.00 in 343 W/m2
11:19 79.8 °F 69 °F 30.14 in ENE 0.5 mph 5 mph 69.7% 0.00 in 156 W/m2
11:24 79.4 °F 68.5 °F 30.14 in ENE 0.2 mph 5 mph 69.3% 0.00 in 144 W/m2
11:29 79 °F 68.2 °F 30.14 in East 1.8 mph 6 mph 69.7% 0.00 in 137 W/m2
11:34 78.7 °F 67.9 °F 30.13 in East 0.6 mph 6 mph 69.5% 0.00 in 139 W/m2
11:39 78.5 °F 67.9 °F 30.13 in East 0.7 mph 4 mph 70% 0.00 in 144 W/m2
11:43 78.4 °F 67.9 °F 30.13 in ENE 0.3 mph 5 mph 70.2% 0.00 in 113 W/m2
12:09 77.8 °F 68.2 °F 30.13 in East 0.1 mph 3 mph 72.2% 0.00 in 100 W/m2
12:14 77.8 °F 68 °F 30.13 in East 0.3 mph 3 mph 71.9% 0.00 in 95 W/m2
12:19 77.8 °F 68.2 °F 30.13 in Calm   3 mph 72.4% 0.00 in 93 W/m2
12:24 77.8 °F 68.8 °F 30.13 in Calm   3 mph 73.7% 0.00 in 93 W/m2
12:29 77.8 °F 68.4 °F 30.13 in Calm   3 mph 72.9% 0.00 in 100 W/m2
12:34 77.8 °F 68.5 °F 30.13 in East 0.1 mph 3 mph 73.2% 0.00 in 104 W/m2
12:39 77.8 °F 68.5 °F 30.12 in Calm   1 mph 73.2% 0.00 in 120 W/m2
12:44 77.9 °F 68.5 °F 30.12 in Calm   1 mph 73% 0.00 in 127 W/m2
12:49 77.9 °F 68.7 °F 30.12 in Calm   1 mph 73.2% 0.00 in 113 W/m2
12:54 78 °F 69 °F 30.12 in ENE 0.6 mph 4 mph 73.8% 0.00 in 111 W/m2
12:59 78.1 °F 68.9 °F 30.12 in Calm   4 mph 73.2% 0.00 in 95 W/m2
13:04 78.2 °F 69 °F 30.12 in Calm   4 mph 73.4% 0.00 in 93 W/m2
13:09 78.1 °F 68.8 °F 30.12 in Calm   1 mph 73.2% 0.00 in 79 W/m2
13:14 78.1 °F 68.8 °F 30.12 in Calm   1 mph 73.1% 0.00 in 74 W/m2
13:19 78.1 °F 68.8 °F 30.12 in Calm   1 mph 73.3% 0.00 in 67 W/m2
13:24 78 °F 68.7 °F 30.12 in Calm   1 mph 73.2% 0.00 in 65 W/m2
13:29 78 °F 69 °F 30.12 in Calm   1 mph 73.8% 0.00 in 53 W/m2
13:34 78 °F 69 °F 30.12 in Calm   1 mph 74% 0.00 in 46 W/m2
13:39 77.9 °F 69.2 °F 30.11 in Calm     74.8% 0.00 in 47 W/m2
13:44 77.9 °F 69.5 °F 30.11 in ENE 0.7 mph 4 mph 75.4% 0.00 in 51 W/m2
13:49 77.7 °F 69.5 °F 30.11 in ENE 0.1 mph 4 mph 76% 0.00 in 56 W/m2
13:54 77.4 °F 70 °F 30.11 in ENE 0.2 mph 4 mph 77.8% 0.00 in 63 W/m2
13:59 76.9 °F 69.7 °F 30.11 in NNE 1.8 mph 7 mph 78.3% 0.00 in 67 W/m2
14:04 76.4 °F 69.6 °F 30.11 in NE 0.1 mph 7 mph 79.6% 0.00 in 72 W/m2
14:09 76.1 °F 69.8 °F 30.11 in Calm   2 mph 81.1% 0.00 in 83 W/m2
14:14 75.8 °F 69.7 °F 30.11 in Calm   2 mph 81.6% 0.00 in 95 W/m2
14:19 75.7 °F 69.8 °F 30.11 in Calm   2 mph 82.2% 0.00 in 105 W/m2
14:24 75.7 °F 70.3 °F 30.11 in Calm   2 mph 83.3% 0.00 in 148 W/m2
14:29 75.7 °F 70.6 °F 30.11 in Calm   2 mph 84% 0.00 in 174 W/m2
14:34 75.9 °F 70.8 °F 30.11 in Calm   2 mph 84% 0.00 in 258 W/m2
14:39 76.3 °F 71.2 °F 30.11 in Calm     84.5% 0.00 in 258 W/m2
14:44 76.5 °F 71 °F 30.11 in Calm     83.1% 0.00 in 174 W/m2
14:49 76.7 °F 70.9 °F 30.10 in Calm     82.3% 0.00 in 264 W/m2
14:54 77.1 °F 71.1 °F 30.10 in Calm     81.8% 0.00 in 343 W/m2
14:59 77.4 °F 70.9 °F 30.10 in Calm     80.5% 0.00 in 213 W/m2
15:04 77.6 °F 70.3 °F 30.10 in Calm     78.4% 0.00 in 285 W/m2
15:09 77.9 °F 70.7 °F 30.10 in Calm     78.4% 0.00 in 267 W/m2
15:14 78.2 °F 70.1 °F 30.10 in Calm     76.2% 0.00 in 490 W/m2
15:19 78.6 °F 70.6 °F 30.10 in Calm     76.5% 0.00 in 490 W/m2
15:24 79 °F 70.5 °F 30.10 in NE 0.4 mph 3 mph 75.3% 0.00 in 318 W/m2
15:29 79.1 °F 70.1 °F 30.10 in NE 0.2 mph 3 mph 73.9% 0.00 in 239 W/m2
15:34 79.3 °F 70.5 °F 30.10 in NE 0.1 mph 3 mph 74.7% 0.00 in 345 W/m2
15:39 79.4 °F 70.5 °F 30.10 in NE 0.1 mph 2 mph 74.1% 0.00 in 360 W/m2
15:44 79.8 °F 70.7 °F 30.10 in NE 0.3 mph 4 mph 73.8% 0.00 in 777 W/m2
15:49 80.3 °F 70.5 °F 30.09 in Calm   4 mph 72.3% 0.00 in 777 W/m2
15:54 80.6 °F 70.3 °F 30.09 in Calm   4 mph 71.1% 0.00 in 239 W/m2
15:59 80.7 °F 70.5 °F 30.09 in ENE 0.9 mph 4 mph 71.3% 0.00 in 209 W/m2
16:04 80.7 °F 70.4 °F 30.09 in Calm     71% 0.00 in 199 W/m2
16:09 80.7 °F 70.4 °F 30.09 in NE 1.8 mph 8 mph 71% 0.00 in 283 W/m2
16:14 80.7 °F 70.5 °F 30.09 in NE 1.1 mph 9 mph 71.3% 0.00 in 267 W/m2
16:19 80.8 °F 70.6 °F 30.09 in ENE 2.4 mph 9 mph 71.3% 0.00 in 209 W/m2
16:24 80.7 °F 70.8 °F 30.09 in NE 0.9 mph 9 mph 72.1% 0.00 in 93 W/m2
16:29 80.4 °F 70.6 °F 30.09 in ENE 1.1 mph 9 mph 72% 0.00 in 95 W/m2
16:34 80.1 °F 70.6 °F 30.09 in ENE 1.4 mph 9 mph 72.9% 0.00 in 76 W/m2
16:39 79.8 °F 70.5 °F 30.10 in ENE 0.8 mph 5 mph 73.2% 0.00 in 63 W/m2
16:44 79.5 °F 70.3 °F 30.10 in ENE 0.6 mph 5 mph 73.5% 0.00 in 65 W/m2
16:49 79.3 °F 70.3 °F 30.10 in ENE 0.1 mph 5 mph 74.1% 0.00 in 62 W/m2
16:54 78.9 °F 70.4 °F 30.10 in ENE 0.2 mph 5 mph 75.2% 0.00 in 81 W/m2
16:59 78.5 °F 70.4 °F 30.10 in ESE 1.5 mph 5 mph 76.2% 0.00 in 77 W/m2
17:04 78 °F 70.6 °F 30.10 in ESE 0.4 mph 5 mph 77.9% 0.00 in 62 W/m2
17:09 77.5 °F 70.5 °F 30.10 in Calm   3 mph 79% 0.00 in 53 W/m2
17:14 77.2 °F 70.5 °F 30.10 in ESE 0.1 mph 3 mph 80% 0.00 in 69 W/m2
17:19 76.9 °F 70.6 °F 30.10 in East 0.1 mph 3 mph 81% 0.00 in 67 W/m2
17:24 76.7 °F 70.4 °F 30.10 in East 0.1 mph 3 mph 81.1% 0.00 in 49 W/m2
17:29 76.5 °F 70.6 °F 30.10 in East 0.1 mph 3 mph 82% 0.00 in 63 W/m2
17:34 76.4 °F 70.5 °F 30.10 in Calm   3 mph 82% 0.00 in 63 W/m2
17:39 76.4 °F 70.5 °F 30.10 in Calm     82% 0.00 in 63 W/m2
17:44 76.3 °F 70.6 °F 30.10 in Calm   1 mph 82.5% 0.00 in 63 W/m2
17:49 76.3 °F 70.4 °F 30.10 in East 0.8 mph 4 mph 82.2% 0.00 in 65 W/m2
17:54 76.2 °F 70.3 °F 30.10 in Calm   4 mph 82% 0.00 in 56 W/m2
17:59 76.1 °F 70 °F 30.11 in ENE 0.3 mph 4 mph 81.4% 0.00 in 44 W/m2
18:04 76 °F 69.8 °F 30.11 in ENE 0.4 mph 4 mph 81.1% 0.00 in 44 W/m2
18:09 76 °F 69.9 °F 30.11 in ENE 0.8 mph 4 mph 81.5% 0.00 in 44 W/m2
18:14 75.9 °F 70 °F 30.10 in ENE 0.4 mph 4 mph 82% 0.00 in 49 W/m2
18:19 75.8 °F 69.9 °F 30.10 in ENE 0.1 mph 4 mph 82% 0.00 in 49 W/m2
18:24 75.8 °F 69.9 °F 30.10 in ENE 0.2 mph 4 mph 82% 0.00 in 47 W/m2
18:29 75.8 °F 70.1 °F 30.09 in ENE 0.4 mph 4 mph 82.5% 0.00 in 47 W/m2
18:34 75.7 °F 70.2 °F 30.09 in Calm   4 mph 83% 0.00 in 47 W/m2
18:39 75.7 °F 70.2 °F 30.10 in ENE 0.2 mph 2 mph 83% 0.00 in 46 W/m2
18:44 75.7 °F 70.2 °F 30.10 in Calm   2 mph 83% 0.00 in 42 W/m2
18:49 75.6 °F 70.1 °F 30.10 in Calm   2 mph 83% 0.00 in 40 W/m2
18:54 75.6 °F 70.1 °F 30.10 in Calm   2 mph 83% 0.00 in 37 W/m2
18:59 75.6 °F 70.1 °F 30.10 in Calm   2 mph 83% 0.00 in 35 W/m2
19:04 75.6 °F 70.1 °F 30.10 in Calm   2 mph 83% 0.00 in 37 W/m2
19:09 75.7 °F 70.1 °F 30.11 in Calm     83% 0.00 in 32 W/m2
19:14 75.7 °F 70.2 °F 30.11 in Calm     83% 0.00 in 30 W/m2
19:19 75.6 °F 70.2 °F 30.11 in Calm     83.2% 0.00 in 25 W/m2
19:24 75.6 °F 70.1 °F 30.11 in Calm     83.1% 0.00 in 18 W/m2
19:29 75.6 °F 70.1 °F 30.11 in Calm     83% 0.00 in 14 W/m2
19:34 75.5 °F 70 °F 30.11 in Calm     83% 0.00 in 11 W/m2
19:39 75.5 °F 70.2 °F 30.11 in Calm     83.6% 0.00 in 11 W/m2
19:44 75.4 °F 70.1 °F 30.11 in Calm     83.6% 0.00 in 11 W/m2
19:49 75.3 °F 69.8 °F 30.11 in Calm     83% 0.00 in 7 W/m2
19:54 75.3 °F 69.8 °F 30.11 in Calm     83% 0.00 in 5 W/m2
19:59 75.2 °F 69.7 °F 30.11 in Calm     83% 0.00 in 0 W/m2
20:00 75.2 °F 69.7 °F 30.11 in Calm     83% 0.00 in 0 W/m2
20:09 75.1 °F 69.8 °F 30.12 in Calm     83.7% 0.00 in 0 W/m2
20:14 75 °F 69.8 °F 30.11 in Calm     84% 0.00 in 0 W/m2
20:19 74.9 °F 69.8 °F 30.11 in Calm     84% 0.00 in 0 W/m2
20:24 74.9 °F 69.7 °F 30.12 in Calm     84% 0.00 in 0 W/m2
20:29 74.8 °F 69.7 °F 30.12 in Calm     84% 0.00 in 0 W/m2
20:34 74.8 °F 69.6 °F 30.12 in Calm     84% 0.00 in 0 W/m2
20:39 74.7 °F 69.8 °F 30.12 in Calm     84.7% 0.00 in 0 W/m2
20:44 74.7 °F 69.9 °F 30.13 in Calm     85% 0.00 in 0 W/m2
20:49 74.7 °F 69.9 °F 30.13 in Calm     85% 0.00 in 0 W/m2
20:54 74.6 °F 69.8 °F 30.13 in Calm     85% 0.00 in 0 W/m2
20:59 74.6 °F 69.8 °F 30.13 in Calm     85% 0.00 in 0 W/m2
21:04 74.6 °F 69.8 °F 30.13 in Calm     85% 0.00 in 0 W/m2
21:09 74.6 °F 69.8 °F 30.13 in Calm     85% 0.00 in 0 W/m2
21:14 74.6 °F 69.8 °F 30.13 in Calm     85% 0.00 in 0 W/m2
21:19 74.6 °F 69.8 °F 30.13 in Calm     85% 0.00 in 0 W/m2
21:24 74.5 °F 69.7 °F 30.14 in Calm     85% 0.00 in 0 W/m2
21:29 74.5 °F 69.7 °F 30.14 in Calm     85% 0.00 in 0 W/m2
21:34 74.4 °F 69.8 °F 30.13 in Calm     85.6% 0.00 in 0 W/m2
21:39 74.3 °F 69.8 °F 30.13 in Calm     86% 0.00 in 0 W/m2
21:44 74.2 °F 69.7 °F 30.13 in Calm     86% 0.00 in 0 W/m2
21:49 74 °F 69.6 °F 30.13 in Calm     86% 0.00 in 0 W/m2
21:54 73.9 °F 69.5 °F 30.12 in Calm     86% 0.00 in 0 W/m2
21:59 73.8 °F 69.4 °F 30.13 in Calm     86% 0.00 in 0 W/m2
22:04 73.7 °F 69.4 °F 30.13 in Calm     86.4% 0.00 in 0 W/m2
22:09 73.7 °F 69.6 °F 30.12 in Calm     87% 0.00 in 0 W/m2
22:14 73.6 °F 69.5 °F 30.13 in Calm     87% 0.00 in 0 W/m2
22:19 73.6 °F 69.5 °F 30.12 in Calm     87% 0.00 in 0 W/m2
22:24 73.5 °F 69.6 °F 30.13 in Calm     87.5% 0.00 in 0 W/m2
22:29 73.5 °F 69.7 °F 30.13 in Calm     88% 0.00 in 0 W/m2
22:34 73.4 °F 69.6 °F 30.13 in Calm     88% 0.00 in 0 W/m2
22:39 73.3 °F 69.5 °F 30.13 in Calm     88% 0.00 in 0 W/m2
22:44 73.2 °F 69.4 °F 30.13 in Calm     88% 0.00 in 0 W/m2
22:49 73.1 °F 69.4 °F 30.13 in Calm     88.3% 0.00 in 0 W/m2
22:54 73 °F 69.6 °F 30.13 in Calm     89% 0.00 in 0 W/m2
22:59 73 °F 69.5 °F 30.13 in Calm     89% 0.00 in 0 W/m2
23:04 72.8 °F 69.4 °F 30.12 in Calm     89% 0.00 in 0 W/m2
23:09 72.7 °F 69.3 °F 30.12 in Calm     89% 0.00 in 0 W/m2
23:14 72.6 °F 69.2 °F 30.12 in Calm     89% 0.00 in 0 W/m2
23:19 72.5 °F 69.1 °F 30.12 in Calm     89% 0.00 in 0 W/m2
23:24 72.4 °F 69 °F 30.13 in Calm     89% 0.00 in 0 W/m2
23:29 72.3 °F 68.9 °F 30.13 in Calm     89% 0.00 in 0 W/m2
23:34 72.2 °F 68.9 °F 30.13 in Calm     89.5% 0.00 in 0 W/m2
23:39 72.1 °F 69 °F 30.13 in Calm     90% 0.00 in 0 W/m2
23:44 71.9 °F 68.9 °F 30.13 in Calm     90% 0.00 in 0 W/m2
23:49 71.8 °F 68.7 °F 30.13 in Calm     90% 0.00 in 0 W/m2
23:54 71.7 °F 68.7 °F 30.13 in Calm     90% 0.00 in 0 W/m2
23:59 71.6 °F 68.9 °F 30.14 in Calm     91% 0.00 in 0 W/m2
Hartford County Weather
Compliments of Weather Underground - 4 mb